Archival Weather

Norman Y Mineta San Jose Intl

San Jose, California (KSJC)

Report from: Wednesday, February 21, 2024 2:34 AM PST
Current time: Monday, June 17, 2024 12:54 AM PDT

Current weather – Weather history – Daily summaries
Weather forecast

Present weatherMist
Temperature10.0°C (50.0°F)
Dew point8.3°C (46.9°F)
Winds Calm
Visibility4 mi. (6.4 km)
Clouds Few clouds 4,400 ft. (1,341 m)
Altimeter30.09 in.Hg (1019 mB)
Relative humidity89 %
Density altitude-635 ft. (-194 m)
Remarks Fully automated report
Automated weather observing station with precipitation discriminator
Flight conditions Marginal Visual Meteorological Conditions
Raw dataKSJC 211034Z AUTO 00000KT 4SM R30L/6000VP6000FT BR FEW044 10/08 A3009 RMK AO2 T01000083
An error has occurred. This application may no longer respond until reloaded. Reload 🗙